Henniker, NH

2:16 AM EDT on October 31, 2014 (GMT -0400)
Manchester | Change Station
CLOSE
Current Station
Airport
Location: Manchester,
Elevation: 233 ft
Nearby Weather Stations

Elev 233 ft 42.93 °N, 71.44 °W | Updated 23 minutes ago

Overcast
Overcast
43 °F
Feels Like 43 °F
N
0
Wind Variable Wind from North

Today
High -- | Low -- °F
--% Chance of Precip.
Yesterday
High -- | Low -- °F
Precip. -- in
7:20 AM 5:40 PM
First Quarter, 52% visible
Pressure 30.05 in
Visibility 10.0 miles
Clouds Overcast 5500 ft
Dew Point 35 °F
Humidity 74%
Rainfall 0.00 in
Snow Depth Not available.
UV 0 out of 12
Pollen .20 out of 12
Air Quality Not available.
Flu Activity Not available.
METAR KMHT 310553Z 00000KT 10SM OVC055 06/02 A3001 RMK AO2 SLP175 T00610017 10100 20056 53008

More Conditions Fewer Conditions

Pressure 30.05 in
Visibility 10.0 miles
Clouds Overcast 5500 ft
Dew Point 35 °F
Humidity 74%
Rainfall 0.00 in
Snow Depth Not available.
UV 0 out of 12
Pollen .20 out of 12
Air Quality Not available.
Flu Activity Not available.
METAR KMHT 310553Z 00000KT 10SM OVC055 06/02 A3001 RMK AO2 SLP175 T00610017 10100 20056 53008

More Conditions Fewer Conditions

10-Day Weather Forecast

Almanac

Astronomy

Oct. 31, 2014 Rise Set
Actual Time
Civil Twilight
Nautical Twilight
Astronomical Twilight
Moon
Length of Visible Light
Length of Day
Tomorrow will be .
, % of the Moon is Illuminated

Today's Extremes

State Highs State Lows

Community

WunderPhotos

Upload Photos

1,766,571 photos uploaded!

WunderBlogs® & News

Nearby

Air Quality

  Air Quality AQ Index Pollutant
Not available.

Snow Depth

Station Depth Elevation

Earthquake Activity

City Distance Mag. Time & Date
Minimum magnitude displayed is 2.5.

Coastal Water Temperatures

Place Temperature

Nearby Weather Stations